sensor_id;sensor_type;location;lat;lon;timestamp;pressure;altitude;pressure_sealevel;temperature;humidity
69855;BME280;57146;48.140;16.304;2023-05-02T00:01:50;99288.59;;;13.69;64.04
69855;BME280;57146;48.140;16.304;2023-05-02T00:04:17;99285.63;;;13.71;63.87
69855;BME280;57146;48.140;16.304;2023-05-02T00:06:45;99285.16;;;13.69;64.06
69855;BME280;57146;48.140;16.304;2023-05-02T00:09:12;99287.69;;;13.65;64.20
69855;BME280;57146;48.140;16.304;2023-05-02T00:11:40;99294.22;;;13.59;64.31
69855;BME280;57146;48.140;16.304;2023-05-02T00:14:07;99296.72;;;13.55;64.16
69855;BME280;57146;48.140;16.304;2023-05-02T00:16:35;99300.97;;;13.48;64.46
69855;BME280;57146;48.140;16.304;2023-05-02T00:19:04;99301.94;;;13.43;63.85
69855;BME280;57146;48.140;16.304;2023-05-02T00:21:30;99291.69;;;13.41;64.20
69855;BME280;57146;48.140;16.304;2023-05-02T00:24:01;99295.25;;;13.46;63.91
69855;BME280;57146;48.140;16.304;2023-05-02T00:26:28;99299.56;;;13.50;63.63
69855;BME280;57146;48.140;16.304;2023-05-02T00:28:55;99297.25;;;13.49;64.03
69855;BME280;57146;48.140;16.304;2023-05-02T00:31:26;99301.44;;;13.50;63.95
69855;BME280;57146;48.140;16.304;2023-05-02T00:33:53;99294.63;;;13.49;64.00
69855;BME280;57146;48.140;16.304;2023-05-02T00:36:19;99297.13;;;13.45;64.15
69855;BME280;57146;48.140;16.304;2023-05-02T00:38:47;99292.91;;;13.44;63.97
69855;BME280;57146;48.140;16.304;2023-05-02T00:41:16;99289.19;;;13.36;64.67
69855;BME280;57146;48.140;16.304;2023-05-02T00:43:43;99295.25;;;13.37;64.66
69855;BME280;57146;48.140;16.304;2023-05-02T00:46:11;99291.69;;;13.33;64.95
69855;BME280;57146;48.140;16.304;2023-05-02T00:48:38;99290.47;;;13.30;64.96
69855;BME280;57146;48.140;16.304;2023-05-02T00:51:05;99293.44;;;13.29;65.10
69855;BME280;57146;48.140;16.304;2023-05-02T00:53:34;99291.25;;;13.31;65.13
69855;BME280;57146;48.140;16.304;2023-05-02T00:56:05;99294.97;;;13.30;65.47
69855;BME280;57146;48.140;16.304;2023-05-02T00:58:32;99299.19;;;13.31;65.47
69855;BME280;57146;48.140;16.304;2023-05-02T01:06:35;99301.38;;;13.29;66.37
69855;BME280;57146;48.140;16.304;2023-05-02T01:12:41;99304.19;;;13.24;67.12
69855;BME280;57146;48.140;16.304;2023-05-02T01:15:13;99308.38;;;13.25;67.38
69855;BME280;57146;48.140;16.304;2023-05-02T01:17:43;99303.09;;;13.25;67.67
69855;BME280;57146;48.140;16.304;2023-05-02T01:20:16;99310.84;;;13.21;67.84
69855;BME280;57146;48.140;16.304;2023-05-02T01:22:46;99310.69;;;13.17;67.93
69855;BME280;57146;48.140;16.304;2023-05-02T01:28:20;99316.13;;;13.12;68.93
69855;BME280;57146;48.140;16.304;2023-05-02T01:30:55;99314.31;;;13.13;68.77
69855;BME280;57146;48.140;16.304;2023-05-02T01:33:24;99316.00;;;13.09;70.00
69855;BME280;57146;48.140;16.304;2023-05-02T01:35:56;99323.28;;;13.12;70.38
69855;BME280;57146;48.140;16.304;2023-05-02T01:38:25;99320.22;;;13.01;71.58
69855;BME280;57146;48.140;16.304;2023-05-02T01:40:55;99320.69;;;13.03;71.05
69855;BME280;57146;48.140;16.304;2023-05-02T01:43:25;99313.53;;;13.04;71.72
69855;BME280;57146;48.140;16.304;2023-05-02T01:45:53;99315.22;;;13.08;70.92
69855;BME280;57146;48.140;16.304;2023-05-02T01:48:24;99317.56;;;13.10;71.95
69855;BME280;57146;48.140;16.304;2023-05-02T01:50:53;99318.34;;;13.10;71.66
69855;BME280;57146;48.140;16.304;2023-05-02T01:53:25;99320.78;;;13.15;71.76
69855;BME280;57146;48.140;16.304;2023-05-02T01:55:55;99319.09;;;13.11;72.88
69855;BME280;57146;48.140;16.304;2023-05-02T01:58:29;99336.84;;;13.10;73.42
69855;BME280;57146;48.140;16.304;2023-05-02T02:00:59;99326.88;;;13.07;73.80
69855;BME280;57146;48.140;16.304;2023-05-02T02:03:30;99327.66;;;13.08;73.94
69855;BME280;57146;48.140;16.304;2023-05-02T02:06:02;99319.72;;;13.08;73.81
69855;BME280;57146;48.140;16.304;2023-05-02T02:08:29;99314.94;;;13.10;74.31
69855;BME280;57146;48.140;16.304;2023-05-02T02:10:59;99322.06;;;13.09;73.98
69855;BME280;57146;48.140;16.304;2023-05-02T02:13:36;99327.22;;;13.06;74.39
69855;BME280;57146;48.140;16.304;2023-05-02T02:16:07;99321.94;;;13.06;74.51
69855;BME280;57146;48.140;16.304;2023-05-02T02:18:37;99329.53;;;13.07;74.53
69855;BME280;57146;48.140;16.304;2023-05-02T02:21:06;99317.41;;;13.06;74.65
69855;BME280;57146;48.140;16.304;2023-05-02T02:23:38;99326.75;;;13.04;74.61
69855;BME280;57146;48.140;16.304;2023-05-02T02:26:09;99327.50;;;13.04;74.32
69855;BME280;57146;48.140;16.304;2023-05-02T02:28:38;99327.22;;;13.06;74.62
69855;BME280;57146;48.140;16.304;2023-05-02T02:31:05;99324.25;;;13.07;74.52
69855;BME280;57146;48.140;16.304;2023-05-02T02:33:32;99325.66;;;13.05;74.12
69855;BME280;57146;48.140;16.304;2023-05-02T02:36:11;99325.34;;;13.06;74.03
69855;BME280;57146;48.140;16.304;2023-05-02T02:38:48;99318.97;;;13.07;74.05
69855;BME280;57146;48.140;16.304;2023-05-02T02:41:23;99326.25;;;13.10;73.67
69855;BME280;57146;48.140;16.304;2023-05-02T02:44:11;99330.94;;;13.13;73.80
69855;BME280;57146;48.140;16.304;2023-05-02T02:51:57;99339.47;;;13.10;73.53
69855;BME280;57146;48.140;16.304;2023-05-02T02:54:45;99337.59;;;13.11;73.43
69855;BME280;57146;48.140;16.304;2023-05-02T02:57:38;99341.97;;;13.07;73.26
69855;BME280;57146;48.140;16.304;2023-05-02T03:00:14;99336.06;;;13.01;73.46
69855;BME280;57146;48.140;16.304;2023-05-02T03:02:42;99344.94;;;12.97;73.45
69855;BME280;57146;48.140;16.304;2023-05-02T03:05:10;99345.13;;;12.91;73.39
69855;BME280;57146;48.140;16.304;2023-05-02T03:07:38;99347.28;;;12.89;73.51
69855;BME280;57146;48.140;16.304;2023-05-02T03:10:06;99349.44;;;12.87;73.46
69855;BME280;57146;48.140;16.304;2023-05-02T03:12:34;99358.63;;;12.90;73.32
69855;BME280;57146;48.140;16.304;2023-05-02T03:18:27;99368.75;;;12.88;73.38
69855;BME280;57146;48.140;16.304;2023-05-02T03:20:54;99363.47;;;12.88;73.86
69855;BME280;57146;48.140;16.304;2023-05-02T03:23:22;99359.38;;;12.90;73.57
69855;BME280;57146;48.140;16.304;2023-05-02T03:25:52;99363.28;;;12.93;73.69
69855;BME280;57146;48.140;16.304;2023-05-02T03:28:22;99365.44;;;12.91;73.40
69855;BME280;57146;48.140;16.304;2023-05-02T03:30:51;99367.78;;;12.92;73.36
69855;BME280;57146;48.140;16.304;2023-05-02T03:33:20;99363.91;;;12.90;73.71
69855;BME280;57146;48.140;16.304;2023-05-02T03:35:47;99363.59;;;12.83;73.63
69855;BME280;57146;48.140;16.304;2023-05-02T03:38:15;99365.78;;;12.81;73.30
69855;BME280;57146;48.140;16.304;2023-05-02T03:40:45;99366.56;;;12.81;73.70
69855;BME280;57146;48.140;16.304;2023-05-02T03:43:12;99367.47;;;12.77;73.73
69855;BME280;57146;48.140;16.304;2023-05-02T03:45:41;99367.66;;;12.72;73.86
69855;BME280;57146;48.140;16.304;2023-05-02T03:48:09;99373.53;;;12.68;74.05
69855;BME280;57146;48.140;16.304;2023-05-02T03:50:37;99379.91;;;12.67;74.21
69855;BME280;57146;48.140;16.304;2023-05-02T03:53:04;99384.44;;;12.67;74.22
69855;BME280;57146;48.140;16.304;2023-05-02T03:55:41;99385.19;;;12.67;73.88
69855;BME280;57146;48.140;16.304;2023-05-02T03:58:16;99393.13;;;12.67;74.34
69855;BME280;57146;48.140;16.304;2023-05-02T04:00:47;99394.38;;;12.70;74.23
69855;BME280;57146;48.140;16.304;2023-05-02T04:03:14;99391.09;;;12.73;73.91
69855;BME280;57146;48.140;16.304;2023-05-02T04:05:44;99397.47;;;12.72;74.17
69855;BME280;57146;48.140;16.304;2023-05-02T04:08:13;99404.28;;;12.73;74.18
69855;BME280;57146;48.140;16.304;2023-05-02T04:10:41;99401.53;;;12.78;73.91
69855;BME280;57146;48.140;16.304;2023-05-02T04:13:10;99412.84;;;12.79;73.77
69855;BME280;57146;48.140;16.304;2023-05-02T04:15:41;99417.22;;;12.75;74.04
69855;BME280;57146;48.140;16.304;2023-05-02T04:18:08;99424.66;;;12.73;74.12
69855;BME280;57146;48.140;16.304;2023-05-02T04:20:36;99424.53;;;12.78;74.28
69855;BME280;57146;48.140;16.304;2023-05-02T04:23:03;99426.38;;;12.77;74.41
69855;BME280;57146;48.140;16.304;2023-05-02T04:25:31;99422.66;;;12.78;73.94
69855;BME280;57146;48.140;16.304;2023-05-02T04:28:01;99423.59;;;12.74;73.99
69855;BME280;57146;48.140;16.304;2023-05-02T04:30:29;99426.84;;;12.70;74.28
69855;BME280;57146;48.140;16.304;2023-05-02T04:33:03;99426.19;;;12.65;74.65
69855;BME280;57146;48.140;16.304;2023-05-02T04:35:38;99426.19;;;12.65;75.14
69855;BME280;57146;48.140;16.304;2023-05-02T04:38:07;99431.03;;;12.63;75.25
69855;BME280;57146;48.140;16.304;2023-05-02T04:40:34;99431.81;;;12.63;75.36
69855;BME280;57146;48.140;16.304;2023-05-02T04:43:04;99440.50;;;12.64;75.51
69855;BME280;57146;48.140;16.304;2023-05-02T04:45:39;99432.41;;;12.60;75.43
69855;BME280;57146;48.140;16.304;2023-05-02T04:48:12;99438.78;;;12.59;75.22
69855;BME280;57146;48.140;16.304;2023-05-02T04:50:39;99440.19;;;12.57;75.38
69855;BME280;57146;48.140;16.304;2023-05-02T04:53:06;99444.38;;;12.58;75.62
69855;BME280;57146;48.140;16.304;2023-05-02T04:55:34;99450.44;;;12.58;75.59
69855;BME280;57146;48.140;16.304;2023-05-02T04:58:01;99448.25;;;12.60;75.49
69855;BME280;57146;48.140;16.304;2023-05-02T05:00:28;99447.66;;;12.63;76.09
69855;BME280;57146;48.140;16.304;2023-05-02T05:02:56;99452.31;;;12.66;75.59
69855;BME280;57146;48.140;16.304;2023-05-02T05:05:26;99450.13;;;12.68;75.56
69855;BME280;57146;48.140;16.304;2023-05-02T05:07:54;99460.84;;;12.72;75.51
69855;BME280;57146;48.140;16.304;2023-05-02T05:10:23;99461.34;;;12.74;75.50
69855;BME280;57146;48.140;16.304;2023-05-02T05:12:50;99464.16;;;12.78;75.14
69855;BME280;57146;48.140;16.304;2023-05-02T05:15:17;99472.53;;;12.80;75.04
69855;BME280;57146;48.140;16.304;2023-05-02T05:17:49;99470.81;;;12.84;75.15
69855;BME280;57146;48.140;16.304;2023-05-02T05:20:16;99469.41;;;12.86;75.07
69855;BME280;57146;48.140;16.304;2023-05-02T05:22:44;99471.78;;;12.88;75.08
69855;BME280;57146;48.140;16.304;2023-05-02T05:25:13;99477.06;;;12.88;74.72
69855;BME280;57146;48.140;16.304;2023-05-02T05:27:41;99472.69;;;12.92;74.98
69855;BME280;57146;48.140;16.304;2023-05-02T05:30:09;99476.56;;;12.94;75.19
69855;BME280;57146;48.140;16.304;2023-05-02T05:32:38;99475.66;;;12.99;74.81
69855;BME280;57146;48.140;16.304;2023-05-02T05:35:05;99483.25;;;13.01;75.40
69855;BME280;57146;48.140;16.304;2023-05-02T05:37:32;99482.81;;;13.07;75.73
69855;BME280;57146;48.140;16.304;2023-05-02T05:40:00;99488.09;;;13.07;75.02
69855;BME280;57146;48.140;16.304;2023-05-02T05:42:29;99483.75;;;13.11;75.92
69855;BME280;57146;48.140;16.304;2023-05-02T05:44:59;99486.53;;;13.15;75.20
69855;BME280;57146;48.140;16.304;2023-05-02T05:47:27;99493.84;;;13.18;75.14
69855;BME280;57146;48.140;16.304;2023-05-02T05:49:55;99496.16;;;13.19;75.00
69855;BME280;57146;48.140;16.304;2023-05-02T05:52:26;99495.56;;;13.23;75.81
69855;BME280;57146;48.140;16.304;2023-05-02T05:54:55;99502.59;;;13.27;75.57
69855;BME280;57146;48.140;16.304;2023-05-02T05:57:23;99502.91;;;13.34;75.24
69855;BME280;57146;48.140;16.304;2023-05-02T05:59:51;99505.72;;;13.38;75.50
69855;BME280;57146;48.140;16.304;2023-05-02T06:02:18;99510.22;;;13.46;75.28
69855;BME280;57146;48.140;16.304;2023-05-02T06:04:46;99511.91;;;13.51;74.87
69855;BME280;57146;48.140;16.304;2023-05-02T06:07:15;99509.25;;;13.59;74.39
69855;BME280;57146;48.140;16.304;2023-05-02T06:09:43;99518.13;;;13.63;74.73
69855;BME280;57146;48.140;16.304;2023-05-02T06:12:11;99518.44;;;13.71;74.46
69855;BME280;57146;48.140;16.304;2023-05-02T06:14:39;99513.88;;;13.80;74.14
69855;BME280;57146;48.140;16.304;2023-05-02T06:17:06;99512.19;;;13.84;73.63
69855;BME280;57146;48.140;16.304;2023-05-02T06:19:33;99509.97;;;13.86;72.98
69855;BME280;57146;48.140;16.304;2023-05-02T06:22:00;99515.28;;;13.86;73.51
69855;BME280;57146;48.140;16.304;2023-05-02T06:24:26;99510.47;;;13.88;73.37
69855;BME280;57146;48.140;16.304;2023-05-02T06:26:53;99511.22;;;13.88;73.08
69855;BME280;57146;48.140;16.304;2023-05-02T06:29:21;99510.47;;;13.88;73.21
69855;BME280;57146;48.140;16.304;2023-05-02T06:31:47;99516.19;;;13.90;73.39
69855;BME280;57146;48.140;16.304;2023-05-02T06:34:15;99511.38;;;13.92;73.32
69855;BME280;57146;48.140;16.304;2023-05-02T06:36:42;99530.81;;;13.96;72.87
69855;BME280;57146;48.140;16.304;2023-05-02T06:39:09;99527.56;;;13.99;72.75
69855;BME280;57146;48.140;16.304;2023-05-02T06:41:36;99535.50;;;13.99;73.54
69855;BME280;57146;48.140;16.304;2023-05-02T06:44:04;99540.94;;;14.03;72.66
69855;BME280;57146;48.140;16.304;2023-05-02T06:46:31;99533.75;;;14.03;71.85
69855;BME280;57146;48.140;16.304;2023-05-02T06:48:57;99531.59;;;14.05;71.88
69855;BME280;57146;48.140;16.304;2023-05-02T06:51:24;99541.84;;;14.07;71.86
69855;BME280;57146;48.140;16.304;2023-05-02T06:53:51;99542.00;;;14.10;71.52
69855;BME280;57146;48.140;16.304;2023-05-02T06:56:18;99550.41;;;14.12;71.28
69855;BME280;57146;48.140;16.304;2023-05-02T06:58:45;99543.69;;;14.15;71.01
69855;BME280;57146;48.140;16.304;2023-05-02T07:01:12;99542.28;;;14.18;71.00
69855;BME280;57146;48.140;16.304;2023-05-02T07:03:39;99546.94;;;14.21;71.53
69855;BME280;57146;48.140;16.304;2023-05-02T07:06:06;99539.44;;;14.23;71.24
69855;BME280;57146;48.140;16.304;2023-05-02T07:08:33;99541.47;;;14.26;70.47
69855;BME280;57146;48.140;16.304;2023-05-02T07:11:01;99545.22;;;14.25;69.87
69855;BME280;57146;48.140;16.304;2023-05-02T07:13:28;99544.25;;;14.29;69.63
69855;BME280;57146;48.140;16.304;2023-05-02T07:15:55;99549.69;;;14.33;69.41
69855;BME280;57146;48.140;16.304;2023-05-02T07:18:22;99556.25;;;14.35;69.80
69855;BME280;57146;48.140;16.304;2023-05-02T07:20:49;99550.94;;;14.35;68.80
69855;BME280;57146;48.140;16.304;2023-05-02T07:23:16;99555.91;;;14.37;69.16
69855;BME280;57146;48.140;16.304;2023-05-02T07:25:43;99556.38;;;14.39;69.26
69855;BME280;57146;48.140;16.304;2023-05-02T07:28:10;99559.81;;;14.40;69.21
69855;BME280;57146;48.140;16.304;2023-05-02T07:30:37;99554.97;;;14.42;68.59
69855;BME280;57146;48.140;16.304;2023-05-02T07:33:04;99561.03;;;14.42;69.03
69855;BME280;57146;48.140;16.304;2023-05-02T07:35:31;99564.13;;;14.44;69.43
69855;BME280;57146;48.140;16.304;2023-05-02T07:37:58;99570.69;;;14.47;68.91
69855;BME280;57146;48.140;16.304;2023-05-02T07:40:27;99570.38;;;14.48;69.42
69855;BME280;57146;48.140;16.304;2023-05-02T07:43:42;99568.19;;;14.50;68.95
69855;BME280;57146;48.140;16.304;2023-05-02T07:46:09;99579.28;;;14.52;69.72
69855;BME280;57146;48.140;16.304;2023-05-02T07:48:36;99586.88;;;14.54;69.20
69855;BME280;57146;48.140;16.304;2023-05-02T07:51:07;99587.66;;;14.54;69.79
69855;BME280;57146;48.140;16.304;2023-05-02T07:53:34;99605.59;;;14.49;69.13
69855;BME280;57146;48.140;16.304;2023-05-02T07:56:05;99599.53;;;14.40;69.71
69855;BME280;57146;48.140;16.304;2023-05-02T07:58:36;99600.00;;;14.33;69.90
69855;BME280;57146;48.140;16.304;2023-05-02T08:01:05;99599.88;;;14.29;70.13
69855;BME280;57146;48.140;16.304;2023-05-02T08:03:32;99606.06;;;14.33;70.66
69855;BME280;57146;48.140;16.304;2023-05-02T08:05:59;99610.75;;;14.36;70.48
69855;BME280;57146;48.140;16.304;2023-05-02T08:08:26;99610.44;;;14.38;70.21
69855;BME280;57146;48.140;16.304;2023-05-02T08:10:53;99604.06;;;14.39;71.12
69855;BME280;57146;48.140;16.304;2023-05-02T08:13:20;99609.16;;;14.44;70.36
69855;BME280;57146;48.140;16.304;2023-05-02T08:15:46;99614.16;;;14.46;70.19
69855;BME280;57146;48.140;16.304;2023-05-02T08:18:13;99616.81;;;14.46;70.68
69855;BME280;57146;48.140;16.304;2023-05-02T08:20:42;99614.59;;;14.48;70.54
69855;BME280;57146;48.140;16.304;2023-05-02T08:23:09;99619.59;;;14.49;70.34
69855;BME280;57146;48.140;16.304;2023-05-02T08:25:35;99610.28;;;14.52;70.41
69855;BME280;57146;48.140;16.304;2023-05-02T08:28:02;99616.34;;;14.52;69.88
69855;BME280;57146;48.140;16.304;2023-05-02T08:30:30;99618.69;;;14.45;69.87
69855;BME280;57146;48.140;16.304;2023-05-02T08:32:57;99616.19;;;14.40;69.98
69855;BME280;57146;48.140;16.304;2023-05-02T08:35:24;99622.59;;;14.39;70.35
69855;BME280;57146;48.140;16.304;2023-05-02T08:37:51;99620.72;;;14.40;70.47
69855;BME280;57146;48.140;16.304;2023-05-02T08:40:19;99618.97;;;14.44;70.57
69855;BME280;57146;48.140;16.304;2023-05-02T08:43:06;99625.19;;;14.48;70.37
69855;BME280;57146;48.140;16.304;2023-05-02T08:45:39;99627.72;;;14.53;70.07
69855;BME280;57146;48.140;16.304;2023-05-02T08:48:08;99623.50;;;14.60;69.72
69855;BME280;57146;48.140;16.304;2023-05-02T08:50:40;99622.84;;;14.64;68.75
69855;BME280;57146;48.140;16.304;2023-05-02T08:53:08;99628.16;;;14.64;68.66
69855;BME280;57146;48.140;16.304;2023-05-02T08:55:38;99623.00;;;14.67;68.81
69855;BME280;57146;48.140;16.304;2023-05-02T08:58:06;99628.44;;;14.71;68.37
69855;BME280;57146;48.140;16.304;2023-05-02T09:00:40;99625.16;;;14.74;69.35
69855;BME280;57146;48.140;16.304;2023-05-02T09:03:22;99624.53;;;14.77;68.93
69855;BME280;57146;48.140;16.304;2023-05-02T09:08:31;99611.56;;;14.75;67.79
69855;BME280;57146;48.140;16.304;2023-05-02T09:11:00;99610.38;;;14.73;68.65
69855;BME280;57146;48.140;16.304;2023-05-02T09:16:02;99612.88;;;14.69;68.98
69855;BME280;57146;48.140;16.304;2023-05-02T09:18:40;99613.66;;;14.70;68.41
69855;BME280;57146;48.140;16.304;2023-05-02T09:21:12;99617.22;;;14.65;67.88
69855;BME280;57146;48.140;16.304;2023-05-02T09:23:50;99610.84;;;14.66;68.06
69855;BME280;57146;48.140;16.304;2023-05-02T09:26:29;99618.94;;;14.70;68.00
69855;BME280;57146;48.140;16.304;2023-05-02T09:29:03;99621.09;;;14.76;67.31
69855;BME280;57146;48.140;16.304;2023-05-02T09:31:31;99620.00;;;14.77;67.17
69855;BME280;57146;48.140;16.304;2023-05-02T09:34:10;99625.88;;;14.83;67.35
69855;BME280;57146;48.140;16.304;2023-05-02T09:36:46;99621.06;;;14.85;67.28
69855;BME280;57146;48.140;16.304;2023-05-02T09:39:16;99629.47;;;14.87;67.23
69855;BME280;57146;48.140;16.304;2023-05-02T09:41:47;99640.66;;;14.93;67.47
69855;BME280;57146;48.140;16.304;2023-05-02T09:44:16;99640.34;;;14.94;67.24
69855;BME280;57146;48.140;16.304;2023-05-02T09:46:52;99646.44;;;14.95;67.46
69855;BME280;57146;48.140;16.304;2023-05-02T09:49:43;99645.31;;;14.96;67.45
69855;BME280;57146;48.140;16.304;2023-05-02T09:52:12;99639.69;;;14.97;66.59
69855;BME280;57146;48.140;16.304;2023-05-02T09:54:41;99644.22;;;14.97;66.87
69855;BME280;57146;48.140;16.304;2023-05-02T09:57:10;99644.19;;;15.05;68.45
69855;BME280;57146;48.140;16.304;2023-05-02T09:59:39;99630.75;;;15.11;67.37
69855;BME280;57146;48.140;16.304;2023-05-02T10:02:07;99641.94;;;15.16;67.05
69855;BME280;57146;48.140;16.304;2023-05-02T10:04:34;99638.97;;;15.18;66.85
69855;BME280;57146;48.140;16.304;2023-05-02T10:07:02;99647.84;;;15.22;66.76
69855;BME280;57146;48.140;16.304;2023-05-02T10:09:29;99648.31;;;15.24;67.05
69855;BME280;57146;48.140;16.304;2023-05-02T10:12:01;99657.66;;;15.21;66.94
69855;BME280;57146;48.140;16.304;2023-05-02T10:14:28;99656.91;;;15.21;67.49
69855;BME280;57146;48.140;16.304;2023-05-02T10:17:00;99651.91;;;15.19;67.17
69855;BME280;57146;48.140;16.304;2023-05-02T10:19:35;99647.38;;;15.20;67.78
69855;BME280;57146;48.140;16.304;2023-05-02T10:22:05;99657.81;;;15.25;67.87
69855;BME280;57146;48.140;16.304;2023-05-02T10:24:32;99649.41;;;15.23;67.55
69855;BME280;57146;48.140;16.304;2023-05-02T10:27:00;99652.06;;;15.23;67.57
69855;BME280;57146;48.140;16.304;2023-05-02T10:29:30;99659.06;;;15.19;67.83
69855;BME280;57146;48.140;16.304;2023-05-02T10:31:59;99659.59;;;15.12;67.60
69855;BME280;57146;48.140;16.304;2023-05-02T10:34:26;99669.75;;;15.10;68.60
69855;BME280;57146;48.140;16.304;2023-05-02T10:36:54;99666.31;;;15.09;68.96
69855;BME280;57146;48.140;16.304;2023-05-02T10:39:21;99670.84;;;15.09;68.94
69855;BME280;57146;48.140;16.304;2023-05-02T10:41:50;99672.72;;;15.08;69.13
69855;BME280;57146;48.140;16.304;2023-05-02T10:44:39;99677.75;;;15.01;68.63
69855;BME280;57146;48.140;16.304;2023-05-02T10:47:20;99675.59;;;14.86;68.86
69855;BME280;57146;48.140;16.304;2023-05-02T10:49:52;99666.31;;;14.71;69.63
69855;BME280;57146;48.140;16.304;2023-05-02T10:52:29;99671.31;;;14.64;69.89
69855;BME280;57146;48.140;16.304;2023-05-02T10:55:19;99674.75;;;14.65;69.75
69855;BME280;57146;48.140;16.304;2023-05-02T11:00:24;99680.03;;;14.65;72.59
69855;BME280;57146;48.140;16.304;2023-05-02T11:02:52;99676.94;;;14.63;72.90
69855;BME280;57146;48.140;16.304;2023-05-02T11:05:21;99683.03;;;14.63;73.49
69855;BME280;57146;48.140;16.304;2023-05-02T11:07:48;99674.44;;;14.57;73.00
69855;BME280;57146;48.140;16.304;2023-05-02T11:18:07;99689.56;;;14.57;73.37
69855;BME280;57146;48.140;16.304;2023-05-02T11:20:35;99690.97;;;14.54;74.15
69855;BME280;57146;48.140;16.304;2023-05-02T11:25:43;99690.50;;;14.61;74.00
69855;BME280;57146;48.140;16.304;2023-05-02T11:31:08;99673.81;;;14.69;73.29
69855;BME280;57146;48.140;16.304;2023-05-02T11:33:36;99680.03;;;14.73;72.68
69855;BME280;57146;48.140;16.304;2023-05-02T11:36:03;99670.66;;;14.76;72.39
69855;BME280;57146;48.140;16.304;2023-05-02T11:38:37;99681.41;;;14.79;73.81
69855;BME280;57146;48.140;16.304;2023-05-02T11:41:04;99670.66;;;14.76;71.67
69855;BME280;57146;48.140;16.304;2023-05-02T11:43:31;99676.75;;;14.76;71.93
69855;BME280;57146;48.140;16.304;2023-05-02T11:45:59;99667.38;;;14.79;70.14
69855;BME280;57146;48.140;16.304;2023-05-02T11:48:26;99672.38;;;14.80;71.39
69855;BME280;57146;48.140;16.304;2023-05-02T11:50:58;99671.06;;;14.87;71.12
69855;BME280;57146;48.140;16.304;2023-05-02T11:53:27;99675.75;;;14.90;70.79
69855;BME280;57146;48.140;16.304;2023-05-02T11:55:56;99683.53;;;14.95;70.77
69855;BME280;57146;48.140;16.304;2023-05-02T11:58:25;99673.72;;;14.95;70.92
69855;BME280;57146;48.140;16.304;2023-05-02T12:00:53;99679.94;;;14.99;70.92
69855;BME280;57146;48.140;16.304;2023-05-02T12:05:47;99668.50;;;15.07;69.47
69855;BME280;57146;48.140;16.304;2023-05-02T12:08:26;99671.63;;;15.09;69.59
69855;BME280;57146;48.140;16.304;2023-05-02T12:10:54;99669.75;;;15.10;69.35
69855;BME280;57146;48.140;16.304;2023-05-02T12:13:24;99672.06;;;15.12;69.42
69855;BME280;57146;48.140;16.304;2023-05-02T12:15:52;99667.22;;;15.14;69.06
69855;BME280;57146;48.140;16.304;2023-05-02T12:18:21;99664.38;;;15.19;69.44
69855;BME280;57146;48.140;16.304;2023-05-02T12:20:50;99670.16;;;15.21;68.97
69855;BME280;57146;48.140;16.304;2023-05-02T12:23:21;99674.97;;;15.27;69.68
69855;BME280;57146;48.140;16.304;2023-05-02T12:25:49;99677.28;;;15.29;68.74
69855;BME280;57146;48.140;16.304;2023-05-02T12:28:17;99675.09;;;15.31;68.85
69855;BME280;57146;48.140;16.304;2023-05-02T12:30:47;99675.41;;;15.29;67.93
69855;BME280;57146;48.140;16.304;2023-05-02T12:33:14;99675.41;;;15.29;67.61
69855;BME280;57146;48.140;16.304;2023-05-02T12:35:41;99676.63;;;15.32;66.56
69855;BME280;57146;48.140;16.304;2023-05-02T12:40:36;99685.06;;;15.34;66.64
69855;BME280;57146;48.140;16.304;2023-05-02T12:43:04;99678.66;;;15.35;66.98
69855;BME280;57146;48.140;16.304;2023-05-02T12:45:31;99676.00;;;15.35;67.00
69855;BME280;57146;48.140;16.304;2023-05-02T12:50:44;99680.84;;;15.33;66.51
69855;BME280;57146;48.140;16.304;2023-05-02T12:53:13;99690.16;;;15.39;66.57
69855;BME280;57146;48.140;16.304;2023-05-02T12:55:40;99690.00;;;15.44;66.12
69855;BME280;57146;48.140;16.304;2023-05-02T12:58:09;99687.34;;;15.44;65.50
69855;BME280;57146;48.140;16.304;2023-05-02T13:00:37;99690.16;;;15.39;65.79
69855;BME280;57146;48.140;16.304;2023-05-02T13:03:06;99692.69;;;15.36;65.69
69855;BME280;57146;48.140;16.304;2023-05-02T13:05:33;99694.72;;;15.39;66.19
69855;BME280;57146;48.140;16.304;2023-05-02T13:08:00;99695.47;;;15.39;66.15
69855;BME280;57146;48.140;16.304;2023-05-02T13:10:27;99702.31;;;15.40;66.41
69855;BME280;57146;48.140;16.304;2023-05-02T13:12:54;99711.72;;;15.38;65.72
69855;BME280;57146;48.140;16.304;2023-05-02T13:15:22;99707.56;;;15.28;65.37
69855;BME280;57146;48.140;16.304;2023-05-02T13:17:49;99691.84;;;15.23;66.36
69855;BME280;57146;48.140;16.304;2023-05-02T13:20:17;99689.69;;;15.16;66.63
69855;BME280;57146;48.140;16.304;2023-05-02T13:22:44;99690.47;;;15.17;66.75
69855;BME280;57146;48.140;16.304;2023-05-02T13:25:10;99701.84;;;15.17;66.21
69855;BME280;57146;48.140;16.304;2023-05-02T13:27:37;99701.19;;;15.20;67.06
69855;BME280;57146;48.140;16.304;2023-05-02T13:30:05;99696.19;;;15.19;67.03
69855;BME280;57146;48.140;16.304;2023-05-02T13:32:35;99695.13;;;15.20;67.43
69855;BME280;57146;48.140;16.304;2023-05-02T13:35:02;99695.16;;;15.11;66.73
69855;BME280;57146;48.140;16.304;2023-05-02T13:37:29;99698.13;;;15.09;67.30
69855;BME280;57146;48.140;16.304;2023-05-02T13:39:56;99697.03;;;15.11;68.10
69855;BME280;57146;48.140;16.304;2023-05-02T13:42:22;99709.03;;;15.08;68.60
69855;BME280;57146;48.140;16.304;2023-05-02T13:44:53;99698.63;;;15.03;68.62
69855;BME280;57146;48.140;16.304;2023-05-02T13:47:19;99691.31;;;15.00;68.88
69855;BME280;57146;48.140;16.304;2023-05-02T13:49:46;99692.25;;;14.95;69.17
69855;BME280;57146;48.140;16.304;2023-05-02T13:52:13;99694.00;;;14.91;68.99